Time;durP1;ratioP1;P1;durP2;ratioP2;P2;SDS_P1;SDS_P2;PMS_P1;PMS_P2;Temp;Humidity;BMP_temperature;BMP_pressure;BME280_temperature;BME280_humidity;BME280_pressure;Samples;Min_cycle;Max_cycle;Signal;HPM_P1;HPM_P2
2022/11/24 00:01:20;;;;;;;5.73;1.60;;;10.00;99.90;;;;;;5059131;28;20292;-78
2022/11/24 00:03:54;;;;;;;6.50;1.73;;;10.00;99.90;;;;;;5088085;28;20274;-78
2022/11/24 00:06:20;;;;;;;6.50;1.80;;;10.00;99.90;;;;;;5060573;28;20271;-78
2022/11/24 00:08:45;;;;;;;5.17;1.30;;;10.00;99.90;;;;;;5093844;28;20204;-77
2022/11/24 00:11:33;;;;;;;5.70;1.70;;;10.00;99.90;;;;;;5079946;28;20346;-77
2022/11/24 00:13:59;;;;;;;3.37;1.20;;;10.00;99.90;;;;;;5082960;28;20197;-78
2022/11/24 00:16:32;;;;;;;6.65;1.92;;;10.00;99.90;;;;;;5052840;28;20568;-78
2022/11/24 00:19:02;;;;;;;6.13;1.97;;;10.00;99.90;;;;;;5093146;28;20176;-78
2022/11/24 00:21:31;;;;;;;5.17;1.73;;;10.00;99.90;;;;;;5093351;28;20203;-78
2022/11/24 00:23:58;;;;;;;5.50;1.80;;;10.00;99.90;;;;;;5087269;28;20184;-79
2022/11/24 00:26:26;;;;;;;4.43;1.40;;;10.00;99.90;;;;;;5093691;28;20214;-78
2022/11/24 00:28:54;;;;;;;6.00;1.60;;;10.00;99.90;;;;;;5101256;28;20198;-78
2022/11/24 00:31:21;;;;;;;7.00;1.93;;;10.00;99.90;;;;;;5072998;28;20221;-78
2022/11/24 00:33:55;;;;;;;6.37;1.60;;;10.10;99.90;;;;;;5076037;28;20181;-77
2022/11/24 00:36:23;;;;;;;8.60;2.00;;;10.00;99.90;;;;;;5059689;28;20214;-78
2022/11/24 00:38:54;;;;;;;6.20;1.27;;;10.00;99.90;;;;;;5058572;28;20176;-76
2022/11/24 00:41:20;;;;;;;5.73;1.80;;;10.10;99.90;;;;;;5060956;28;20209;-78
2022/11/24 00:43:45;;;;;;;5.57;1.52;;;10.00;99.90;;;;;;5084110;28;20275;-77
2022/11/24 00:46:13;;;;;;;6.83;1.47;;;10.00;99.90;;;;;;5092936;28;20238;-78
2022/11/24 00:48:39;;;;;;;6.87;1.90;;;10.00;99.90;;;;;;5093119;28;20177;-76
2022/11/24 00:51:07;;;;;;;6.57;1.80;;;10.00;99.90;;;;;;5106991;28;20192;-78
2022/11/24 00:53:40;;;;;;;4.43;1.63;;;10.00;99.90;;;;;;5047633;28;20181;-75
2022/11/24 00:56:10;;;;;;;2.80;1.10;;;10.00;99.90;;;;;;5097703;28;20177;-77
2022/11/24 00:58:36;;;;;;;3.93;1.30;;;10.00;99.90;;;;;;5058528;28;20176;-78
2022/11/24 01:01:07;;;;;;;3.50;1.40;;;10.00;99.90;;;;;;5093768;28;20222;-78
2022/11/24 01:03:36;;;;;;;6.87;1.37;;;10.00;99.90;;;;;;5093597;28;20176;-77
2022/11/24 01:06:06;;;;;;;4.83;1.23;;;10.00;99.90;;;;;;5092009;28;20172;-76
2022/11/24 01:08:33;;;;;;;4.33;1.37;;;9.90;99.90;;;;;;5085098;28;20189;-78
2022/11/24 01:11:10;;;;;;;3.47;1.27;;;9.80;99.90;;;;;;5039307;28;20169;-77
2022/11/24 01:13:36;;;;;;;3.30;1.50;;;9.80;99.90;;;;;;5048568;28;20181;-78
2022/11/24 01:16:02;;;;;;;6.37;1.30;;;9.80;99.90;;;;;;5063398;28;20194;-77
2022/11/24 01:18:27;;;;;;;4.13;1.80;;;9.80;99.90;;;;;;5055694;28;20276;-78
2022/11/24 01:20:53;;;;;;;5.57;1.40;;;9.70;99.90;;;;;;5105103;28;20208;-78
2022/11/24 01:23:19;;;;;;;5.60;1.80;;;9.80;99.90;;;;;;5092469;28;20263;-77
2022/11/24 01:25:44;;;;;;;3.93;1.40;;;9.80;99.90;;;;;;5091620;28;20180;-78
2022/11/24 01:28:12;;;;;;;4.30;1.50;;;9.70;99.90;;;;;;5085498;28;20242;-75
2022/11/24 01:30:40;;;;;;;5.93;1.50;;;9.80;99.90;;;;;;5067750;28;20203;-77
2022/11/24 01:33:06;;;;;;;5.97;1.83;;;9.80;99.90;;;;;;5094364;28;20188;-79
2022/11/24 01:35:37;;;;;;;3.97;1.40;;;9.80;99.90;;;;;;5094431;28;20172;-78
2022/11/24 01:38:03;;;;;;;5.90;1.37;;;9.80;99.90;;;;;;5058913;28;20179;-78
2022/11/24 01:40:28;;;;;;;8.00;1.60;;;9.90;99.90;;;;;;5043102;28;20212;-79
2022/11/24 01:42:54;;;;;;;3.63;1.27;;;9.70;99.90;;;;;;5091737;28;20525;-78
2022/11/24 01:45:25;;;;;;;4.73;1.50;;;9.80;99.90;;;;;;5091598;28;20168;-77
2022/11/24 01:47:53;;;;;;;3.87;1.57;;;9.80;99.90;;;;;;5091811;28;20177;-78
2022/11/24 01:50:19;;;;;;;4.37;1.57;;;9.80;99.90;;;;;;5097807;28;20216;-76
2022/11/24 01:52:53;;;;;;;4.67;1.53;;;9.80;99.90;;;;;;5091769;28;20184;-77
2022/11/24 01:55:28;;;;;;;6.63;1.60;;;9.90;99.90;;;;;;5091458;28;20200;-78
2022/11/24 01:58:01;;;;;;;4.72;1.20;;;9.90;99.90;;;;;;5093871;28;20202;-77
2022/11/24 02:00:29;;;;;;;5.13;1.40;;;9.90;99.90;;;;;;5051113;28;20196;-77
2022/11/24 02:02:57;;;;;;;6.07;1.70;;;9.90;99.90;;;;;;5092959;28;21140;-76
2022/11/24 02:05:26;;;;;;;4.20;1.43;;;9.90;99.90;;;;;;5092874;28;20188;-77
2022/11/24 02:07:54;;;;;;;5.13;1.20;;;9.90;99.90;;;;;;5093099;28;20197;-79
2022/11/24 02:10:21;;;;;;;5.97;2.00;;;9.70;99.90;;;;;;5096839;28;20185;-78
2022/11/24 02:12:49;;;;;;;4.67;1.50;;;9.80;99.90;;;;;;5091055;28;20176;-77
2022/11/24 02:15:21;;;;;;;4.70;1.30;;;9.80;99.90;;;;;;5091558;28;20194;-78
2022/11/24 02:17:47;;;;;;;5.53;1.57;;;9.70;99.90;;;;;;5091417;28;20181;-77
2022/11/24 02:20:18;;;;;;;5.60;1.37;;;9.70;99.90;;;;;;5065967;28;20246;-79
2022/11/24 02:23:00;;;;;;;5.67;1.63;;;9.70;99.90;;;;;;5078540;28;20215;-77
2022/11/24 02:25:53;;;;;;;6.83;1.40;;;9.70;99.90;;;;;;5085961;28;20181;-78
2022/11/24 02:28:22;;;;;;;5.23;1.40;;;9.60;99.90;;;;;;5038044;28;20246;-77
2022/11/24 02:30:51;;;;;;;3.77;1.17;;;9.60;99.90;;;;;;5050225;28;20253;-78
2022/11/24 02:33:20;;;;;;;5.43;1.17;;;9.60;99.90;;;;;;5099696;28;20181;-75
2022/11/24 02:35:48;;;;;;;5.90;1.67;;;9.60;99.90;;;;;;5049018;28;20181;-78
2022/11/24 02:38:16;;;;;;;5.50;1.53;;;9.60;99.90;;;;;;5103944;28;20176;-77
2022/11/24 02:40:45;;;;;;;7.77;1.73;;;9.50;99.90;;;;;;5062729;28;20236;-77
2022/11/24 02:43:19;;;;;;;5.30;1.73;;;9.60;99.90;;;;;;5080084;28;20268;-77
2022/11/24 02:45:44;;;;;;;7.50;2.10;;;9.60;99.90;;;;;;5091646;28;20193;-76
2022/11/24 02:48:10;;;;;;;5.57;1.77;;;9.70;99.90;;;;;;5095318;28;20180;-78
2022/11/24 02:50:36;;;;;;;5.67;1.70;;;9.80;99.90;;;;;;5086298;28;20241;-76
2022/11/24 02:53:01;;;;;;;7.30;1.60;;;9.80;99.90;;;;;;5048935;28;20199;-78
2022/11/24 02:55:30;;;;;;;6.97;1.70;;;9.80;99.90;;;;;;5062143;28;20186;-78
2022/11/24 02:57:58;;;;;;;6.80;1.70;;;9.80;99.90;;;;;;5083998;28;20267;-79
2022/11/24 03:00:23;;;;;;;5.83;1.60;;;9.80;99.90;;;;;;5048369;28;20232;-77
2022/11/24 03:02:49;;;;;;;7.40;1.80;;;9.90;99.90;;;;;;5095944;28;20216;-78
2022/11/24 03:05:19;;;;;;;5.03;1.37;;;9.80;99.90;;;;;;5101592;28;20181;-78
2022/11/24 03:07:45;;;;;;;6.43;1.57;;;9.90;99.90;;;;;;5068073;28;20169;-78
2022/11/24 03:10:11;;;;;;;4.20;1.37;;;9.80;99.90;;;;;;5100290;28;20175;-77
2022/11/24 03:12:41;;;;;;;4.13;1.33;;;9.80;99.90;;;;;;5100832;28;20287;-78
2022/11/24 03:15:08;;;;;;;5.53;1.47;;;9.80;99.90;;;;;;5098441;28;20214;-69
2022/11/24 03:17:34;;;;;;;4.40;1.40;;;9.80;99.90;;;;;;5110924;28;20259;-69
2022/11/24 03:20:01;;;;;;;4.47;1.23;;;9.80;99.90;;;;;;5091104;28;20295;-69
2022/11/24 03:22:27;;;;;;;3.47;1.20;;;9.70;99.90;;;;;;5101359;28;20194;-69
2022/11/24 03:24:52;;;;;;;4.23;1.27;;;9.70;99.90;;;;;;5102664;28;20209;-69
2022/11/24 03:27:18;;;;;;;4.97;1.63;;;9.80;99.90;;;;;;5099800;28;20172;-69
2022/11/24 03:29:44;;;;;;;5.93;1.40;;;9.70;99.90;;;;;;5056771;28;20177;-69
2022/11/24 03:32:09;;;;;;;6.07;1.87;;;9.60;99.90;;;;;;5083548;28;20196;-69
2022/11/24 03:34:37;;;;;;;5.67;1.53;;;9.70;99.90;;;;;;5083819;28;20200;-70
2022/11/24 03:37:05;;;;;;;4.07;1.23;;;9.70;99.90;;;;;;5086067;28;20188;-69
2022/11/24 03:39:35;;;;;;;3.93;1.43;;;9.70;99.90;;;;;;5054528;28;20193;-69
2022/11/24 03:42:03;;;;;;;5.37;1.40;;;9.70;99.90;;;;;;5055026;28;20187;-69
2022/11/24 03:44:28;;;;;;;5.30;1.37;;;9.70;99.90;;;;;;5074176;28;20385;-70
2022/11/24 03:46:56;;;;;;;4.70;1.40;;;9.70;99.90;;;;;;5089478;28;20187;-70
2022/11/24 03:49:22;;;;;;;4.77;1.50;;;9.70;99.90;;;;;;5064442;28;20245;-70
2022/11/24 03:51:47;;;;;;;5.87;1.50;;;9.70;99.90;;;;;;5098217;28;20220;-70
2022/11/24 03:54:20;;;;;;;7.77;1.90;;;9.70;99.90;;;;;;5063424;28;20208;-70
2022/11/24 03:56:49;;;;;;;8.20;1.60;;;9.70;99.90;;;;;;5059612;28;20249;-71
2022/11/24 03:59:14;;;;;;;6.97;2.20;;;9.80;99.90;;;;;;5096133;28;20232;-70
2022/11/24 04:01:42;;;;;;;5.80;1.70;;;9.80;99.90;;;;;;5103015;28;20204;-70
2022/11/24 04:04:10;;;;;;;5.60;1.40;;;9.80;99.90;;;;;;5103004;28;20199;-71
2022/11/24 04:06:36;;;;;;;4.17;1.60;;;9.80;99.90;;;;;;5100537;28;20184;-70
2022/11/24 04:09:01;;;;;;;4.20;1.57;;;9.80;99.90;;;;;;5096319;28;20177;-72
2022/11/24 04:14:13;;;;;;;4.10;1.60;;;9.80;99.90;;;;;;5081821;28;20198;-71
2022/11/24 04:16:39;;;;;;;6.97;1.70;;;10.00;99.90;;;;;;5101397;28;20199;-71
2022/11/24 04:19:05;;;;;;;7.10;1.90;;;10.00;99.90;;;;;;5095977;28;20173;-70
2022/11/24 04:21:30;;;;;;;4.83;1.27;;;10.00;99.90;;;;;;5084448;28;20200;-71
2022/11/24 04:23:59;;;;;;;6.83;1.97;;;10.00;99.90;;;;;;5100247;28;20173;-71
2022/11/24 04:26:25;;;;;;;4.57;1.73;;;10.10;99.90;;;;;;5093465;28;20184;-71
2022/11/24 04:28:50;;;;;;;5.57;1.70;;;10.00;99.90;;;;;;5073828;28;20184;-71
2022/11/24 04:31:17;;;;;;;5.83;1.53;;;10.10;99.90;;;;;;5108123;28;20279;-70
2022/11/24 04:33:43;;;;;;;5.47;1.20;;;10.10;99.90;;;;;;5096980;28;20238;-70
2022/11/24 04:36:08;;;;;;;9.43;2.03;;;10.20;99.90;;;;;;5059024;28;20181;-71
2022/11/24 04:38:34;;;;;;;5.22;1.85;;;10.10;99.90;;;;;;5067528;28;20271;-71
2022/11/24 04:41:04;;;;;;;6.35;1.85;;;10.20;99.90;;;;;;5093447;28;20232;-71
2022/11/24 04:43:30;;;;;;;7.50;1.80;;;10.20;99.90;;;;;;5089276;28;20184;-70
2022/11/24 04:46:00;;;;;;;3.95;1.40;;;10.10;99.90;;;;;;5088020;28;20176;-71
2022/11/24 04:48:28;;;;;;;6.53;1.83;;;10.20;99.90;;;;;;5058627;28;20220;-70
2022/11/24 04:50:56;;;;;;;7.32;1.65;;;10.20;99.90;;;;;;5047608;28;20178;-70
2022/11/24 04:53:22;;;;;;;5.55;2.17;;;10.20;99.90;;;;;;5063036;28;20177;-70
2022/11/24 04:55:47;;;;;;;7.85;1.80;;;10.20;99.90;;;;;;5092464;28;20187;-71
2022/11/24 04:58:15;;;;;;;8.32;1.92;;;10.20;99.90;;;;;;5092855;28;20176;-70
2022/11/24 05:00:41;;;;;;;6.95;3.40;;;10.20;99.90;;;;;;5100552;28;20205;-71
2022/11/24 05:03:09;;;;;;;5.10;1.98;;;10.30;99.90;;;;;;5061041;28;20176;-71
2022/11/24 05:05:34;;;;;;;5.45;1.85;;;10.40;99.90;;;;;;5039854;28;20181;-71
2022/11/24 05:08:02;;;;;;;9.38;2.78;;;10.40;99.90;;;;;;5087928;28;20181;-71
2022/11/24 05:10:39;;;;;;;7.25;1.90;;;10.40;99.90;;;;;;5055869;28;20184;-70
2022/11/24 05:13:13;;;;;;;5.47;2.00;;;10.40;99.90;;;;;;5092138;28;20260;-70
2022/11/24 05:15:40;;;;;;;8.15;2.00;;;10.50;99.90;;;;;;5095534;28;20233;-71
2022/11/24 05:18:11;;;;;;;7.43;1.70;;;10.50;99.90;;;;;;5092192;28;20275;-71
2022/11/24 05:20:37;;;;;;;5.30;1.75;;;10.50;99.90;;;;;;5092369;28;20200;-70
2022/11/24 05:23:06;;;;;;;5.53;1.77;;;10.50;99.90;;;;;;5084356;28;20184;-70
2022/11/24 05:25:34;;;;;;;6.57;1.75;;;10.50;99.90;;;;;;5056110;28;20191;-71
2022/11/24 05:28:04;;;;;;;3.55;1.45;;;10.60;99.90;;;;;;5058583;28;20187;-70
2022/11/24 05:30:30;;;;;;;7.97;2.15;;;10.60;99.90;;;;;;5091849;28;20176;-70
2022/11/24 05:32:57;;;;;;;6.47;2.10;;;10.60;99.90;;;;;;5085227;28;20185;-70
2022/11/24 05:35:24;;;;;;;7.75;1.77;;;10.60;99.90;;;;;;5104558;28;20176;-71
2022/11/24 05:37:50;;;;;;;7.35;1.80;;;10.60;99.90;;;;;;5102362;28;20197;-70
2022/11/24 05:40:16;;;;;;;4.80;1.40;;;10.70;99.90;;;;;;5101463;28;20204;-71
2022/11/24 05:42:41;;;;;;;8.43;2.10;;;10.70;99.90;;;;;;5060634;28;20238;-70
2022/11/24 05:45:12;;;;;;;8.23;1.88;;;10.70;99.90;;;;;;5057848;28;20204;-71
2022/11/24 05:47:39;;;;;;;5.28;1.50;;;10.70;99.90;;;;;;5090596;28;20172;-70
2022/11/24 05:50:08;;;;;;;9.05;2.05;;;10.80;99.90;;;;;;5060183;28;20184;-71
2022/11/24 05:52:37;;;;;;;8.52;1.83;;;10.80;99.90;;;;;;5091602;28;20192;-71
2022/11/24 05:55:04;;;;;;;5.97;2.25;;;10.80;99.90;;;;;;5061528;28;20176;-71
2022/11/24 05:57:29;;;;;;;5.95;2.10;;;10.80;99.90;;;;;;5076633;28;20181;-72
2022/11/24 05:59:55;;;;;;;10.00;2.67;;;10.80;99.90;;;;;;5057265;28;20200;-70
2022/11/24 06:02:21;;;;;;;8.75;2.13;;;10.80;99.90;;;;;;5089012;28;20214;-71
2022/11/24 06:04:49;;;;;;;6.20;1.95;;;10.70;99.90;;;;;;5096504;28;20225;-70
2022/11/24 06:07:17;;;;;;;9.10;1.70;;;10.60;99.90;;;;;;5090752;28;20180;-70
2022/11/24 06:09:43;;;;;;;7.05;1.88;;;10.60;99.90;;;;;;5096563;28;20169;-71
2022/11/24 06:12:10;;;;;;;7.95;1.80;;;10.50;99.90;;;;;;5085761;28;20187;-70
2022/11/24 06:14:36;;;;;;;6.25;1.90;;;10.50;99.90;;;;;;5057721;28;20501;-70
2022/11/24 06:17:03;;;;;;;3.83;1.80;;;10.50;99.90;;;;;;5055509;28;20263;-70
2022/11/24 06:19:31;;;;;;;8.10;1.95;;;10.40;99.90;;;;;;5085775;28;20169;-69
2022/11/24 06:21:57;;;;;;;6.53;1.90;;;10.40;99.90;;;;;;5102722;28;20190;-70
2022/11/24 06:24:23;;;;;;;7.20;1.98;;;10.30;99.90;;;;;;5097912;28;20169;-71
2022/11/24 06:26:48;;;;;;;7.55;2.15;;;10.30;99.90;;;;;;5099921;28;20204;-70
2022/11/24 06:29:16;;;;;;;5.18;1.60;;;10.30;99.90;;;;;;5092788;28;20180;-70
2022/11/24 06:31:42;;;;;;;5.40;1.50;;;10.30;99.90;;;;;;5089905;28;20183;-70
2022/11/24 06:34:10;;;;;;;8.75;2.00;;;10.20;99.90;;;;;;5089718;28;20267;-69
2022/11/24 06:36:39;;;;;;;7.70;1.80;;;10.10;99.90;;;;;;5094478;28;20183;-69
2022/11/24 06:39:05;;;;;;;5.90;1.40;;;10.20;99.90;;;;;;5090496;28;20176;-70
2022/11/24 06:41:31;;;;;;;3.63;1.33;;;10.20;99.90;;;;;;5056635;28;20192;-70
2022/11/24 06:43:59;;;;;;;3.90;1.60;;;10.20;99.90;;;;;;5090682;28;20259;-71
2022/11/24 06:46:25;;;;;;;4.40;1.30;;;10.10;99.90;;;;;;5081831;28;20173;-70
2022/11/24 06:48:51;;;;;;;3.90;1.27;;;10.10;99.90;;;;;;5091799;28;20189;-70
2022/11/24 06:51:20;;;;;;;3.05;1.20;;;10.10;99.90;;;;;;5090979;28;20188;-70
2022/11/24 06:53:45;;;;;;;3.10;1.17;;;10.10;99.90;;;;;;5105271;28;20283;-72
2022/11/24 06:56:15;;;;;;;3.70;1.00;;;10.10;99.90;;;;;;5095281;28;20184;-70
2022/11/24 06:58:45;;;;;;;7.15;1.60;;;10.10;99.90;;;;;;5095995;28;20192;-71
2022/11/24 07:01:19;;;;;;;2.97;1.17;;;10.20;99.90;;;;;;5056795;28;20212;-72
2022/11/24 07:03:47;;;;;;;7.90;2.20;;;10.30;99.90;;;;;;5089650;28;20184;-69
2022/11/24 07:06:16;;;;;;;7.28;2.75;;;10.20;99.90;;;;;;5049975;28;20177;-75
2022/11/24 07:08:42;;;;;;;6.35;2.47;;;10.20;99.90;;;;;;5090646;28;20187;-78
2022/11/24 07:11:15;;;;;;;4.80;1.90;;;10.20;99.90;;;;;;5105779;28;20241;-77
2022/11/24 07:13:46;;;;;;;4.78;1.70;;;10.30;99.90;;;;;;5108693;28;20211;-78
2022/11/24 07:16:22;;;;;;;5.43;1.90;;;10.30;99.90;;;;;;5106356;28;20199;-75
2022/11/24 07:18:50;;;;;;;3.83;1.50;;;10.40;99.90;;;;;;5090963;28;20211;-76
2022/11/24 07:21:16;;;;;;;3.33;1.08;;;10.40;99.90;;;;;;5097602;28;20216;-71
2022/11/24 07:23:49;;;;;;;4.30;1.38;;;10.50;99.90;;;;;;5093528;28;20225;-71
2022/11/24 07:26:15;;;;;;;3.20;1.05;;;10.50;99.90;;;;;;5102502;28;20189;-72
2022/11/24 07:28:41;;;;;;;1.80;0.93;;;10.50;99.90;;;;;;5095733;28;20223;-71
2022/11/24 07:31:27;;;;;;;3.33;0.95;;;10.40;99.90;;;;;;5094848;28;20180;-72
2022/11/24 07:33:54;;;;;;;2.67;1.23;;;10.40;99.90;;;;;;5075563;28;20180;-71
2022/11/24 07:36:22;;;;;;;5.55;1.10;;;10.40;99.90;;;;;;5091097;28;20236;-70
2022/11/24 07:38:48;;;;;;;1.97;0.90;;;10.40;99.90;;;;;;5058067;28;20301;-71
2022/11/24 07:41:18;;;;;;;4.07;1.10;;;10.40;99.90;;;;;;5093906;28;20317;-70
2022/11/24 07:43:45;;;;;;;2.77;0.90;;;10.40;99.90;;;;;;5097180;28;20181;-72
2022/11/24 07:46:17;;;;;;;3.75;0.98;;;10.30;99.90;;;;;;5093696;28;20190;-72
2022/11/24 07:48:43;;;;;;;4.03;0.93;;;10.30;99.90;;;;;;5092551;28;20268;-71
2022/11/24 07:51:09;;;;;;;1.97;0.87;;;10.30;99.90;;;;;;5097136;28;20180;-71
2022/11/24 07:53:36;;;;;;;1.63;0.90;;;10.30;99.90;;;;;;5103831;28;20187;-70
2022/11/24 07:56:03;;;;;;;3.40;0.93;;;10.30;99.90;;;;;;5060416;28;20353;-71
2022/11/24 07:58:33;;;;;;;2.97;1.10;;;10.30;99.90;;;;;;5065539;28;20219;-71
2022/11/24 08:01:01;;;;;;;4.50;1.10;;;10.30;99.90;;;;;;5099675;28;20231;-71
2022/11/24 08:03:27;;;;;;;2.55;1.40;;;10.20;99.90;;;;;;5098049;28;20208;-71
2022/11/24 08:05:54;;;;;;;3.07;1.10;;;10.30;99.90;;;;;;5060115;28;20218;-71
2022/11/24 08:08:22;;;;;;;2.95;1.05;;;10.20;99.90;;;;;;5061541;28;20208;-71
2022/11/24 08:10:48;;;;;;;4.77;1.03;;;10.30;99.90;;;;;;5068869;28;20176;-72
2022/11/24 08:13:17;;;;;;;2.92;0.90;;;10.20;99.90;;;;;;5093657;28;20176;-71
2022/11/24 08:15:48;;;;;;;3.60;1.33;;;10.20;99.90;;;;;;5063330;28;20180;-72
2022/11/24 08:18:13;;;;;;;3.13;1.17;;;10.20;99.90;;;;;;5065470;28;20183;-71
2022/11/24 08:20:39;;;;;;;1.80;0.90;;;10.30;99.90;;;;;;5099137;28;20208;-71
2022/11/24 08:23:04;;;;;;;1.83;0.93;;;10.30;99.90;;;;;;5060212;28;20184;-71
2022/11/24 08:25:31;;;;;;;1.80;0.80;;;10.40;99.90;;;;;;5100719;28;20217;-70
2022/11/24 08:28:05;;;;;;;3.40;1.30;;;10.20;99.90;;;;;;5097027;28;20180;-71
2022/11/24 08:30:31;;;;;;;2.45;1.30;;;10.40;99.90;;;;;;5087116;28;20185;-71
2022/11/24 08:33:00;;;;;;;3.38;1.20;;;10.40;99.90;;;;;;5055045;28;20180;-71
2022/11/24 08:35:28;;;;;;;2.78;1.10;;;10.40;99.90;;;;;;5106154;28;20224;-71
2022/11/24 08:37:53;;;;;;;5.28;1.10;;;10.40;99.90;;;;;;5097457;28;20180;-70
2022/11/24 08:40:19;;;;;;;2.30;1.20;;;10.50;99.90;;;;;;5107913;28;20305;-71
2022/11/24 08:42:47;;;;;;;4.18;1.20;;;10.50;99.90;;;;;;5100338;28;20370;-71
2022/11/24 08:45:15;;;;;;;3.42;1.00;;;10.60;99.90;;;;;;5092911;28;20240;-71
2022/11/24 08:47:46;;;;;;;2.95;0.80;;;10.60;99.90;;;;;;5095644;28;20183;-72
2022/11/24 08:50:11;;;;;;;2.33;1.02;;;10.60;99.90;;;;;;5093593;28;20176;-72
2022/11/24 08:52:42;;;;;;;2.67;1.05;;;10.70;99.90;;;;;;5093196;28;20250;-71
2022/11/24 08:55:08;;;;;;;2.17;1.02;;;10.80;99.90;;;;;;5102926;28;20212;-72
2022/11/24 08:57:33;;;;;;;4.80;1.20;;;11.00;99.90;;;;;;5100698;28;20176;-71
2022/11/24 08:59:59;;;;;;;2.70;0.70;;;11.30;99.90;;;;;;5087623;28;20210;-73
2022/11/24 09:02:27;;;;;;;4.20;1.17;;;11.50;99.90;;;;;;5101056;28;20259;-72
2022/11/24 09:04:52;;;;;;;4.38;1.20;;;11.80;99.90;;;;;;5100657;28;20192;-72
2022/11/24 09:07:18;;;;;;;3.92;1.10;;;12.00;99.90;;;;;;5052604;28;20172;-72
2022/11/24 09:09:46;;;;;;;4.68;1.08;;;12.30;99.90;;;;;;5097822;28;20184;-72
2022/11/24 09:12:11;;;;;;;2.35;1.10;;;12.40;99.90;;;;;;5112518;28;20175;-71
2022/11/24 09:14:37;;;;;;;3.35;1.35;;;12.30;99.90;;;;;;5059784;28;20169;-72
2022/11/24 09:17:03;;;;;;;3.03;1.27;;;12.20;99.90;;;;;;5101489;28;20184;-72
2022/11/24 09:19:28;;;;;;;2.72;1.13;;;12.10;99.90;;;;;;5092101;28;20179;-72
2022/11/24 09:21:56;;;;;;;3.25;1.17;;;12.00;99.90;;;;;;5085918;28;20269;-72
2022/11/24 09:24:22;;;;;;;3.70;1.20;;;11.90;99.90;;;;;;5092876;28;20203;-72
2022/11/24 09:26:55;;;;;;;4.38;1.30;;;11.90;99.90;;;;;;5092862;28;20184;-72
2022/11/24 09:29:21;;;;;;;3.85;1.27;;;11.80;99.90;;;;;;5060816;28;20176;-72
2022/11/24 09:31:46;;;;;;;5.88;1.65;;;11.80;99.90;;;;;;5059088;28;20203;-71
2022/11/24 09:34:15;;;;;;;3.88;1.20;;;11.80;99.90;;;;;;5092487;28;20181;-72
2022/11/24 09:36:41;;;;;;;6.22;1.55;;;11.60;99.90;;;;;;5102677;28;20181;-71
2022/11/24 09:39:07;;;;;;;4.25;1.17;;;11.70;99.90;;;;;;5094624;28;20192;-71
2022/11/24 09:41:47;;;;;;;3.20;1.13;;;11.80;99.90;;;;;;5058856;28;20253;-72
2022/11/24 09:44:35;;;;;;;3.60;1.10;;;11.90;99.90;;;;;;5091848;28;20165;-72
2022/11/24 09:47:27;;;;;;;3.28;1.02;;;12.00;99.90;;;;;;5053155;28;20369;-72
2022/11/24 09:50:19;;;;;;;5.00;1.25;;;12.00;99.90;;;;;;5063310;28;20264;-72
2022/11/24 09:52:53;;;;;;;3.17;1.20;;;12.10;99.90;;;;;;5047149;28;20321;-72
2022/11/24 09:55:40;;;;;;;3.92;1.15;;;12.10;99.90;;;;;;5101208;28;20175;-71
2022/11/24 09:58:35;;;;;;;3.83;1.48;;;12.10;99.90;;;;;;5065010;28;20191;-71
2022/11/24 10:01:06;;;;;;;2.72;1.20;;;12.10;99.90;;;;;;5050983;28;20231;-71
2022/11/24 10:03:43;;;;;;;2.80;1.00;;;12.10;99.90;;;;;;5098047;28;20198;-72
2022/11/24 10:06:22;;;;;;;4.68;1.35;;;12.10;99.90;;;;;;5062199;28;20219;-71
2022/11/24 10:09:07;;;;;;;3.67;1.25;;;12.20;99.90;;;;;;5089878;28;20187;-71
2022/11/24 10:12:01;;;;;;;6.00;1.42;;;12.30;99.90;;;;;;5058304;28;20250;-71
2022/11/24 10:14:55;;;;;;;4.88;1.13;;;12.30;99.90;;;;;;5057223;28;20188;-72
2022/11/24 10:17:44;;;;;;;4.18;1.33;;;12.50;99.90;;;;;;5093248;28;20180;-71
2022/11/24 10:20:30;;;;;;;3.17;1.35;;;12.60;99.90;;;;;;5079510;28;20204;-71
2022/11/24 10:23:17;;;;;;;6.75;1.52;;;12.70;99.90;;;;;;5066418;28;20176;-71
2022/11/24 10:26:05;;;;;;;6.38;1.67;;;12.90;99.90;;;;;;5107029;28;20255;-71
2022/11/24 10:28:49;;;;;;;7.50;2.17;;;13.10;99.90;;;;;;5091233;28;20184;-71
2022/11/24 10:31:24;;;;;;;5.65;1.30;;;13.20;99.90;;;;;;5071595;28;20165;-71
2022/11/24 10:33:52;;;;;;;5.57;1.30;;;13.30;99.90;;;;;;5085935;28;20183;-71
2022/11/24 10:36:41;;;;;;;4.80;1.40;;;13.30;99.90;;;;;;5059102;28;20188;-72
2022/11/24 10:39:14;;;;;;;5.50;1.38;;;13.40;99.90;;;;;;5091229;28;20329;-72
2022/11/24 10:42:06;;;;;;;5.47;1.40;;;13.50;99.90;;;;;;5093732;28;20201;-72
2022/11/24 10:44:32;;;;;;;5.40;1.60;;;13.60;99.90;;;;;;5053701;28;20279;-72
2022/11/24 10:46:58;;;;;;;5.90;1.73;;;13.70;99.90;;;;;;5098658;28;20267;-71
2022/11/24 10:49:30;;;;;;;7.15;2.13;;;13.80;99.90;;;;;;5066437;28;20187;-71
2022/11/24 10:52:04;;;;;;;5.25;1.63;;;13.80;99.90;;;;;;5091485;28;20195;-71
2022/11/24 10:54:31;;;;;;;6.03;1.73;;;13.90;99.90;;;;;;5091547;28;20225;-72
2022/11/24 10:56:59;;;;;;;5.15;1.40;;;13.90;99.90;;;;;;5107109;28;20187;-71
2022/11/24 10:59:39;;;;;;;6.75;1.65;;;13.90;99.90;;;;;;5106977;28;20168;-71
2022/11/24 11:02:50;;;;;;;4.90;1.63;;;14.00;99.90;;;;;;5102164;28;20184;-72
2022/11/24 11:05:33;;;;;;;7.68;1.75;;;14.00;99.90;;;;;;5068306;28;20180;-71
2022/11/24 11:08:31;;;;;;;4.88;1.38;;;14.10;99.90;;;;;;5095408;28;20181;-71
2022/11/24 11:11:20;;;;;;;6.30;1.40;;;14.10;99.90;;;;;;5053790;28;20460;-71
2022/11/24 11:13:54;;;;;;;5.05;1.25;;;14.10;99.90;;;;;;5098020;28;20254;-72
2022/11/24 11:16:40;;;;;;;4.28;1.85;;;14.10;99.90;;;;;;5103506;28;20268;-70
2022/11/24 11:19:38;;;;;;;4.38;1.27;;;14.20;99.90;;;;;;5098005;28;20175;-71
2022/11/24 11:22:22;;;;;;;5.97;1.40;;;14.20;99.90;;;;;;5055612;28;20184;-71
2022/11/24 11:25:10;;;;;;;5.47;1.60;;;14.30;99.90;;;;;;5095630;28;20224;-78
2022/11/24 11:27:37;;;;;;;7.45;1.70;;;14.40;99.90;;;;;;5066237;28;20176;-78
2022/11/24 11:30:15;;;;;;;3.65;1.17;;;14.50;99.90;;;;;;5055593;28;20239;-78
2022/11/24 11:33:00;;;;;;;7.15;1.65;;;14.60;99.90;;;;;;5073746;28;20208;-79
2022/11/24 11:35:34;;;;;;;7.15;1.73;;;14.70;99.90;;;;;;5062103;28;20196;-77
2022/11/24 11:38:02;;;;;;;6.60;1.90;;;14.80;99.90;;;;;;5101224;28;20267;-78
2022/11/24 11:40:31;;;;;;;6.22;1.50;;;14.90;99.90;;;;;;5060820;28;20204;-78
2022/11/24 11:43:04;;;;;;;8.20;1.83;;;15.10;99.90;;;;;;5075134;28;20169;-79
2022/11/24 11:45:42;;;;;;;4.40;1.60;;;15.20;99.90;;;;;;5101894;28;20242;-78
2022/11/24 11:48:34;;;;;;;4.30;1.33;;;15.40;99.90;;;;;;5094496;28;20180;-79
2022/11/24 11:51:22;;;;;;;7.10;2.15;;;15.50;99.90;;;;;;5093925;28;20191;-78
2022/11/24 11:54:15;;;;;;;6.22;1.70;;;15.70;99.90;;;;;;5095019;28;20185;-78
2022/11/24 11:56:48;;;;;;;8.13;1.80;;;15.80;99.90;;;;;;5088707;28;20178;-77
2022/11/24 11:59:25;;;;;;;7.85;2.13;;;15.80;99.90;;;;;;5076672;28;20187;-78
2022/11/24 12:02:08;;;;;;;6.70;1.67;;;15.90;99.90;;;;;;5093526;28;20253;-79
2022/11/24 12:04:46;;;;;;;6.90;1.80;;;16.00;99.90;;;;;;5104092;28;20180;-79
2022/11/24 12:07:27;;;;;;;6.53;1.70;;;16.00;99.90;;;;;;5060747;28;20183;-79
2022/11/24 12:10:07;;;;;;;6.00;2.03;;;16.10;99.90;;;;;;5060139;28;20218;-79
2022/11/24 12:12:39;;;;;;;6.70;1.70;;;16.20;99.90;;;;;;5093785;28;20244;-79
2022/11/24 12:15:30;;;;;;;7.43;1.60;;;16.20;99.90;;;;;;5071108;28;20176;-76
2022/11/24 12:18:22;;;;;;;7.95;1.70;;;16.30;99.90;;;;;;5094028;28;20215;-79
2022/11/24 12:21:20;;;;;;;3.70;1.48;;;16.30;99.90;;;;;;5100809;28;20269;-78
2022/11/24 12:24:18;;;;;;;6.95;1.80;;;16.30;99.90;;;;;;5043351;28;20176;-78
2022/11/24 12:26:46;;;;;;;6.18;1.70;;;16.30;99.90;;;;;;5092078;28;20237;-78
2022/11/24 12:29:44;;;;;;;7.15;1.85;;;16.30;99.90;;;;;;5064640;28;20192;-78
2022/11/24 12:32:31;;;;;;;7.10;1.80;;;16.30;99.90;;;;;;5026601;28;20195;-77
2022/11/24 12:35:10;;;;;;;6.93;1.83;;;16.20;99.90;;;;;;5089846;28;20180;-78
2022/11/24 12:37:38;;;;;;;4.95;1.60;;;16.10;99.90;;;;;;5093097;28;20176;-79
2022/11/24 12:40:18;;;;;;;8.65;1.80;;;16.00;99.90;;;;;;5076820;28;20205;-78
2022/11/24 12:43:12;;;;;;;6.65;1.80;;;15.90;99.90;;;;;;5099704;28;20172;-80
2022/11/24 12:45:43;;;;;;;8.48;1.80;;;15.90;99.90;;;;;;5048964;28;20193;-78
2022/11/24 12:48:29;;;;;;;5.60;1.50;;;15.80;99.90;;;;;;5093189;28;20187;-80
2022/11/24 12:50:59;;;;;;;5.82;1.60;;;15.80;99.90;;;;;;5049431;28;20188;-78
2022/11/24 12:53:32;;;;;;;8.25;1.73;;;15.80;99.90;;;;;;5100786;28;20177;-79
2022/11/24 12:56:10;;;;;;;7.35;1.80;;;15.90;99.90;;;;;;5066208;28;20176;-79
2022/11/24 12:58:49;;;;;;;3.95;1.58;;;15.90;99.90;;;;;;5100155;28;20180;-79
2022/11/24 13:01:21;;;;;;;6.53;1.73;;;16.00;99.90;;;;;;5092936;28;20216;-80
2022/11/24 13:04:05;;;;;;;5.88;1.80;;;16.00;99.90;;;;;;5059527;28;20173;-80
2022/11/24 13:06:37;;;;;;;5.43;1.40;;;16.00;99.90;;;;;;5080229;28;20173;-79
2022/11/24 13:09:10;;;;;;;3.67;1.30;;;16.10;99.90;;;;;;5058287;28;20172;-79
2022/11/24 13:11:51;;;;;;;4.30;1.33;;;16.10;99.90;;;;;;5059115;28;20362;-79
2022/11/24 13:14:16;;;;;;;5.03;1.60;;;16.10;99.90;;;;;;5093344;28;20176;-79